createdAt,value
2019-03-11T00:00:57.932Z,65.72
2019-03-11T00:01:58.078Z,69.02
2019-03-11T00:02:57.896Z,72.43
2019-03-11T00:03:57.880Z,78.67
2019-03-11T00:04:57.615Z,83.02
2019-03-11T00:05:57.842Z,87.84
2019-03-11T00:06:57.828Z,91.34
2019-03-11T00:07:57.804Z,94.65
2019-03-11T00:08:57.787Z,94.93
2019-03-11T00:09:57.771Z,94.84
2019-03-11T00:10:57.748Z,93.7
2019-03-11T00:11:57.735Z,97.01
2019-03-11T00:12:57.713Z,98.9
2019-03-11T00:13:57.697Z,99.99
2019-03-11T00:14:57.675Z,99.99
2019-03-11T00:15:57.658Z,99.99
2019-03-11T00:16:57.637Z,99.99
2019-03-11T00:17:57.646Z,99.99
2019-03-11T00:18:57.601Z,99.99
2019-03-11T00:19:57.599Z,99.99
2019-03-11T00:20:57.564Z,99.99
2019-03-11T00:21:57.551Z,99.99
2019-03-11T00:22:57.536Z,99.99
2019-03-11T00:23:57.512Z,99.99
2019-03-11T00:24:57.246Z,99.99
2019-03-11T00:25:57.472Z,99.99
2019-03-11T00:26:57.454Z,99.99
2019-03-11T00:27:57.437Z,99.99
2019-03-11T00:28:57.455Z,99.99
2019-03-11T00:29:57.406Z,99.99
2019-03-11T00:30:57.384Z,99.99
2019-03-11T00:31:57.366Z,99.99
2019-03-11T00:32:57.343Z,99.99
2019-03-11T00:33:57.099Z,99.38
2019-03-11T00:34:57.309Z,97.96
2019-03-11T00:35:57.292Z,97.58
2019-03-11T00:36:57.571Z,96.16
2019-03-11T00:37:57.255Z,95.4
2019-03-11T00:38:57.240Z,95.12
2019-03-11T00:39:57.216Z,94.65
2019-03-11T00:40:57.197Z,96.35
2019-03-11T00:41:57.428Z,96.92
2019-03-11T00:42:57.165Z,95.97
2019-03-11T00:43:57.144Z,95.03
2019-03-11T00:44:57.126Z,94.93
2019-03-11T00:45:57.108Z,95.97
2019-03-11T00:46:57.090Z,98.33
2019-03-11T00:48:04.622Z,99.99
2019-03-11T00:48:57.050Z,99.57
2019-03-11T00:49:57.037Z,99.99
2019-03-11T00:50:56.769Z,99.99
2019-03-11T00:51:56.748Z,99.99
2019-03-11T00:52:57.007Z,99.99
2019-03-11T00:53:56.963Z,99.99
2019-03-11T00:54:56.941Z,99.99
2019-03-11T00:55:56.993Z,99.99
2019-03-11T00:56:56.904Z,99.99
2019-03-11T00:57:56.890Z,99.99
2019-03-11T00:58:56.867Z,99.99
2019-03-11T00:59:56.850Z,99.99
2019-03-11T01:00:56.834Z,99.99
2019-03-11T01:01:56.817Z,99.99
2019-03-11T01:02:56.800Z,99.99
2019-03-11T01:03:56.785Z,99.99
2019-03-11T01:04:56.758Z,99.99
2019-03-11T01:05:56.742Z,99.99
2019-03-11T01:06:56.793Z,99.99
2019-03-11T01:07:56.706Z,99.99
2019-03-11T01:08:56.446Z,99.99
2019-03-11T01:09:56.668Z,99.99
2019-03-11T01:10:56.684Z,99.99
2019-03-11T01:11:56.633Z,99.99
2019-03-11T01:12:56.614Z,99.99
2019-03-11T01:13:56.600Z,99.99
2019-03-11T01:14:56.579Z,99.99
2019-03-11T01:15:56.560Z,99.99
2019-03-11T01:16:56.543Z,99.99
2019-03-11T01:17:56.529Z,99.99
2019-03-11T01:18:56.257Z,99.99
2019-03-11T01:19:56.492Z,99.99
2019-03-11T01:20:56.221Z,99.99
2019-03-11T01:21:56.475Z,99.99
2019-03-11T01:22:56.440Z,99.99
2019-03-11T01:23:56.416Z,99.99
2019-03-11T01:24:56.398Z,99.99
2019-03-11T01:25:56.376Z,99.99
2019-03-11T01:26:56.359Z,99.99
2019-03-11T01:27:56.342Z,99.99
2019-03-11T01:28:56.322Z,99.99
2019-03-11T01:29:56.305Z,99.99
2019-03-11T01:30:56.287Z,99.99
2019-03-11T01:31:56.024Z,99.99
2019-03-11T01:32:56.249Z,99.99
2019-03-11T01:33:56.237Z,99.99
2019-03-11T01:34:56.212Z,99.99
2019-03-11T01:35:56.193Z,99.99
2019-03-11T01:36:56.178Z,99.99
2019-03-11T01:37:56.160Z,99.99
2019-03-11T01:38:56.153Z,99.99
2019-03-11T01:39:56.127Z,99.99
2019-03-11T01:40:56.107Z,99.99
2019-03-11T01:41:55.840Z,99.99
2019-03-11T01:42:56.071Z,99.99
2019-03-11T01:43:56.049Z,99.99
2019-03-11T01:44:56.036Z,99.99
2019-03-11T01:45:56.013Z,99.99
2019-03-11T01:46:55.994Z,99.99
2019-03-11T01:47:55.980Z,99.99
2019-03-11T01:48:55.961Z,99.99
2019-03-11T01:49:55.941Z,99.99
2019-03-11T01:50:55.927Z,99.99
2019-03-11T01:51:55.908Z,99.99
2019-03-11T01:52:55.887Z,99.99
2019-03-11T01:53:55.872Z,99.99
2019-03-11T01:54:55.847Z,99.99
2019-03-11T01:55:55.830Z,99.99
2019-03-11T01:56:55.820Z,99.99
2019-03-11T01:57:55.794Z,99.99
2019-03-11T01:58:55.781Z,99.99
2019-03-11T01:59:55.768Z,99.99
2019-03-11T02:00:55.738Z,99.99
2019-03-11T02:01:55.716Z,99.99
2019-03-11T02:02:55.706Z,99.99
2019-03-11T02:03:55.684Z,99.99
2019-03-11T02:04:55.664Z,99.99
2019-03-11T02:05:55.647Z,99.99
2019-03-11T02:06:55.626Z,99.99
2019-03-11T02:07:55.607Z,99.99
2019-03-11T02:08:55.593Z,99.99
2019-03-11T02:09:55.571Z,99.99
2019-03-11T02:10:55.552Z,99.99
2019-03-11T02:11:55.531Z,99.99
2019-03-11T02:12:55.518Z,99.99
2019-03-11T02:13:55.499Z,99.99
2019-03-11T02:14:55.478Z,99.99
2019-03-11T02:15:55.460Z,99.99
2019-03-11T02:16:55.441Z,99.99
2019-03-11T02:17:55.423Z,99.99
2019-03-11T02:18:55.408Z,99.99
2019-03-11T02:19:55.385Z,99.99
2019-03-11T02:20:55.368Z,99.99
2019-03-11T02:21:55.353Z,99.99
2019-03-11T02:22:55.329Z,99.99
2019-03-11T02:23:55.311Z,99.99
2019-03-11T02:24:55.301Z,99.99
2019-03-11T02:25:55.270Z,99.99
2019-03-11T02:26:55.253Z,99.99
2019-03-11T02:27:55.241Z,99.99
2019-03-11T02:28:55.217Z,99.99
2019-03-11T02:29:55.197Z,99.99
2019-03-11T02:30:55.199Z,99.99
2019-03-11T02:31:55.165Z,99.99
2019-03-11T02:32:55.145Z,99.99
2019-03-11T02:33:55.130Z,99.99
2019-03-11T02:34:55.104Z,99.99
2019-03-11T02:35:54.842Z,99.99
2019-03-11T02:36:55.068Z,99.99
2019-03-11T02:37:55.058Z,99.99
2019-03-11T02:38:55.033Z,99.99
2019-03-11T02:39:55.012Z,99.99
2019-03-11T02:40:54.999Z,99.99
2019-03-11T02:41:54.980Z,99.99
2019-03-11T02:42:54.960Z,99.99
2019-03-11T02:43:54.939Z,99.99
2019-03-11T02:44:54.926Z,99.99
2019-03-11T02:45:54.897Z,99.99
2019-03-11T02:46:54.881Z,99.99
2019-03-11T02:47:54.628Z,99.99
2019-03-11T02:48:54.846Z,99.99
2019-03-11T02:49:54.836Z,99.99
2019-03-11T02:50:54.807Z,99.99
2019-03-11T02:51:54.544Z,99.99
2019-03-11T02:52:54.530Z,99.99
2019-03-11T02:53:54.520Z,99.99
2019-03-11T02:54:54.489Z,99.99
2019-03-11T02:55:54.713Z,99.99
2019-03-11T02:56:54.699Z,99.99
2019-03-11T02:57:54.675Z,99.99
2019-03-11T02:58:54.656Z,99.99
2019-03-11T02:59:54.422Z,99.99
2019-03-11T03:00:54.621Z,99.99
2019-03-11T03:01:54.612Z,99.99
2019-03-11T03:02:54.612Z,99.99
2019-03-11T03:03:54.564Z,99.99
2019-03-11T03:04:54.543Z,99.99
2019-03-11T03:05:54.524Z,99.99
2019-03-11T03:06:54.511Z,99.99
2019-03-11T03:07:54.497Z,99.99
2019-03-11T03:08:54.479Z,99.99
2019-03-11T03:09:54.454Z,99.99
2019-03-11T03:10:54.436Z,99.99
2019-03-11T03:11:54.435Z,99.99
2019-03-11T03:12:54.424Z,99.99
2019-03-11T03:13:54.473Z,99.99
2019-03-11T03:14:54.366Z,99.99
2019-03-11T03:15:54.407Z,99.99
2019-03-11T03:16:54.342Z,99.99
2019-03-11T03:17:54.313Z,99.99
2019-03-11T03:18:54.285Z,99.99
2019-03-11T03:19:54.267Z,99.99
2019-03-11T03:20:54.260Z,99.99
2019-03-11T03:21:54.247Z,99.99
2019-03-11T03:22:54.243Z,99.99
2019-03-11T03:23:54.210Z,99.99
2019-03-11T03:24:54.174Z,99.99
2019-03-11T03:25:54.168Z,99.99
2019-03-11T03:26:54.136Z,99.99
2019-03-11T03:27:54.265Z,99.99
2019-03-11T03:28:54.111Z,99.99
2019-03-11T03:29:54.073Z,99.99
2019-03-11T03:30:54.247Z,99.99
2019-03-11T03:31:54.061Z,99.99
2019-03-11T03:32:54.044Z,99.99
2019-03-11T03:33:54.011Z,99.99
2019-03-11T03:34:53.740Z,99.99
2019-03-11T03:35:53.966Z,99.99
2019-03-11T03:36:53.950Z,99.99
2019-03-11T03:37:53.925Z,99.99
2019-03-11T03:38:53.932Z,99.99
2019-03-11T03:39:53.890Z,99.99
2019-03-11T03:40:53.868Z,99.99
2019-03-11T03:41:53.862Z,99.99
2019-03-11T03:42:54.113Z,99.99
2019-03-11T03:43:53.815Z,99.99
2019-03-11T03:44:53.802Z,99.99
2019-03-11T03:45:53.775Z,99.99
2019-03-11T03:46:53.758Z,99.99
2019-03-11T03:47:53.747Z,99.99
2019-03-11T03:48:54.067Z,99.99
2019-03-11T03:49:53.701Z,99.99
2019-03-11T03:50:53.691Z,99.99
2019-03-11T03:51:53.416Z,99.99
2019-03-11T03:52:53.646Z,99.99
2019-03-11T03:53:53.633Z,99.99
2019-03-11T03:54:53.359Z,99.99
2019-03-11T03:55:53.590Z,99.42
2019-03-11T03:56:56.622Z,98.66
2019-03-11T03:57:53.556Z,98.28
2019-03-11T03:58:53.539Z,97.15
2019-03-11T03:59:53.512Z,96.96
2019-03-11T04:00:53.245Z,99.14
2019-03-11T04:01:53.476Z,99.42
2019-03-11T04:02:53.462Z,99.23
2019-03-11T04:03:53.437Z,99.95
2019-03-11T04:04:53.418Z,99.99
2019-03-11T04:05:53.407Z,99.99
2019-03-11T04:06:53.383Z,99.99
2019-03-11T04:07:53.362Z,99.99
2019-03-11T04:08:53.345Z,99.99
2019-03-11T04:09:53.346Z,99.99
2019-03-11T04:10:53.306Z,99.99
2019-03-11T04:11:53.287Z,99.99
2019-03-11T04:12:53.280Z,99.99
2019-03-11T04:13:53.250Z,99.99
2019-03-11T04:14:53.234Z,99.99
2019-03-11T04:15:53.215Z,99.99
2019-03-11T04:16:53.200Z,99.99
2019-03-11T04:17:52.942Z,99.99
2019-03-11T04:18:53.172Z,99.99
2019-03-11T04:19:53.136Z,99.99
2019-03-11T04:20:53.121Z,99.99
2019-03-11T04:21:53.104Z,99.99
2019-03-11T04:22:53.089Z,99.99
2019-03-11T04:23:53.061Z,99.99
2019-03-11T04:24:53.044Z,99.99
2019-03-11T04:25:53.024Z,99.99
2019-03-11T04:26:53.083Z,99.99
2019-03-11T04:27:52.991Z,99.99
2019-03-11T04:28:52.969Z,99.99
2019-03-11T04:29:52.948Z,99.99
2019-03-11T04:30:52.930Z,99.99
2019-03-11T04:31:52.916Z,99.99
2019-03-11T04:32:52.898Z,99.99
2019-03-11T04:33:52.875Z,99.99
2019-03-11T04:34:52.869Z,99.99
2019-03-11T04:35:52.842Z,99.99
2019-03-11T04:36:52.819Z,99.99
2019-03-11T04:37:52.802Z,99.99
2019-03-11T04:38:52.782Z,99.99
2019-03-11T04:39:52.763Z,99.99
2019-03-11T04:40:52.793Z,99.99
2019-03-11T04:41:52.728Z,99.99
2019-03-11T04:42:52.706Z,99.99
2019-03-11T04:43:52.689Z,99.99
2019-03-11T04:44:52.672Z,99.99
2019-03-11T04:45:52.651Z,99.99
2019-03-11T04:46:52.634Z,99.99
2019-03-11T04:47:52.621Z,99.99
2019-03-11T04:48:52.602Z,99.99
2019-03-11T04:49:52.576Z,99.99
2019-03-11T04:50:52.559Z,99.99
2019-03-11T04:51:52.542Z,99.99
2019-03-11T04:52:52.525Z,99.99
2019-03-11T04:53:52.504Z,99.99
2019-03-11T04:54:52.486Z,99.99
2019-03-11T04:55:52.471Z,99.99
2019-03-11T04:56:52.449Z,99.99
2019-03-11T04:57:52.431Z,99.99
2019-03-11T04:58:52.412Z,99.99
2019-03-11T04:59:52.394Z,99.99
2019-03-11T05:00:52.375Z,99.99
2019-03-11T05:01:52.357Z,99.99
2019-03-11T05:02:52.339Z,99.99
2019-03-11T05:03:52.325Z,99.99
2019-03-11T05:04:52.319Z,99.99
2019-03-11T05:05:52.298Z,99.99
2019-03-11T05:06:52.267Z,99.99
2019-03-11T05:07:52.248Z,99.99
2019-03-11T05:08:52.231Z,99.99
2019-03-11T05:09:52.214Z,99.99
2019-03-11T05:10:52.195Z,99.99
2019-03-11T05:11:52.174Z,99.99
2019-03-11T05:12:52.166Z,99.99
2019-03-11T05:13:52.140Z,99.99
2019-03-11T05:14:52.122Z,99.99
2019-03-11T05:15:52.102Z,99.99
2019-03-11T05:16:52.083Z,99.99
2019-03-11T05:17:52.066Z,99
2019-03-11T05:18:52.052Z,98.05
2019-03-11T05:19:52.029Z,97.01
2019-03-11T05:20:52.011Z,95.78
2019-03-11T05:21:52.026Z,94.74
2019-03-11T05:22:54.562Z,93.04
2019-03-11T05:23:51.959Z,91.34
2019-03-11T05:24:51.937Z,90.11
2019-03-11T05:25:51.671Z,89.83
2019-03-11T05:26:51.900Z,87.93
2019-03-11T05:27:51.889Z,86.14
2019-03-11T05:28:52.004Z,84.16
2019-03-11T05:29:51.849Z,82.54
2019-03-11T05:30:51.839Z,79.33
2019-03-11T05:31:51.808Z,77.82
2019-03-11T05:32:51.789Z,76.59
2019-03-11T05:33:51.773Z,74.6
2019-03-11T05:34:51.754Z,72.71
2019-03-11T05:35:51.749Z,72.24
2019-03-11T05:36:51.717Z,70.63
2019-03-11T05:37:51.703Z,69.68
2019-03-11T05:38:51.679Z,69.78
2019-03-11T05:39:51.666Z,69.49
2019-03-11T05:40:51.643Z,69.31
2019-03-11T05:41:51.630Z,69.97
2019-03-11T05:42:51.619Z,69.4
2019-03-11T05:43:51.587Z,68.65
2019-03-11T05:44:51.574Z,68.17
2019-03-11T05:45:51.553Z,68.46
2019-03-11T05:46:51.533Z,68.27
2019-03-11T05:47:51.521Z,67.98
2019-03-11T05:48:51.494Z,67.51
2019-03-11T05:49:51.230Z,67.51
2019-03-11T05:50:51.458Z,67.98
2019-03-11T05:51:53.948Z,67.6
2019-03-11T05:52:51.424Z,68.08
2019-03-11T05:53:51.404Z,68.65
2019-03-11T05:54:51.389Z,69.02
2019-03-11T05:55:51.451Z,69.59
2019-03-11T05:56:51.346Z,71.77
2019-03-11T05:57:51.330Z,71.77
2019-03-11T05:58:51.312Z,71.48
2019-03-11T05:59:51.292Z,72.05
2019-03-11T06:00:51.273Z,73.18
2019-03-11T06:01:51.254Z,74.13
2019-03-11T06:02:51.296Z,75.64
2019-03-11T06:03:51.218Z,76.12
2019-03-11T06:04:51.199Z,76.02
2019-03-11T06:05:51.183Z,76.4
2019-03-11T06:06:50.920Z,75.55
2019-03-11T06:07:51.146Z,74.98
2019-03-11T06:08:51.126Z,74.69
2019-03-11T06:09:51.108Z,74.32
2019-03-11T06:10:51.088Z,74.41
2019-03-11T06:11:51.073Z,73.75
2019-03-11T06:12:50.855Z,74.13
2019-03-11T06:13:51.036Z,73.94
2019-03-11T06:14:51.015Z,73.85
2019-03-11T06:15:50.998Z,73.66
2019-03-11T06:16:50.978Z,72.71
2019-03-11T06:17:51.249Z,73.09
2019-03-11T06:18:50.951Z,73.56
2019-03-11T06:19:50.922Z,74.13
2019-03-11T06:20:50.914Z,76.12
2019-03-11T06:21:50.894Z,75.93
2019-03-11T06:22:50.631Z,76.5
2019-03-11T06:23:50.848Z,76.4
2019-03-11T06:24:50.838Z,75.55
2019-03-11T06:25:50.826Z,75.26
2019-03-11T06:26:50.794Z,76.02
2019-03-11T06:27:50.774Z,75.83
2019-03-11T06:28:50.801Z,76.31
2019-03-11T06:29:50.737Z,81.98
2019-03-11T06:30:50.723Z,85.47
2019-03-11T06:31:50.700Z,86.42
2019-03-11T06:32:50.687Z,86.9
2019-03-11T06:33:50.668Z,86.71
2019-03-11T06:34:50.647Z,85.47
2019-03-11T06:35:50.384Z,85.19
2019-03-11T06:36:50.609Z,84.81
2019-03-11T06:37:50.595Z,84.44
2019-03-11T06:38:50.572Z,82.54
2019-03-11T06:39:50.576Z,81.51
2019-03-11T06:40:50.298Z,80.65
2019-03-11T06:41:50.517Z,81.98
2019-03-11T06:42:50.577Z,81.79
2019-03-11T06:43:50.480Z,81.13
2019-03-11T06:44:50.476Z,80.75
2019-03-11T06:45:50.445Z,80.94
2019-03-11T06:46:50.480Z,84.72
2019-03-11T06:47:50.408Z,85.85
2019-03-11T06:48:50.387Z,87.08
2019-03-11T06:49:50.374Z,89.54
2019-03-11T06:50:50.356Z,90.01
2019-03-11T06:51:50.375Z,91.15
2019-03-11T06:52:50.317Z,92.76
2019-03-11T06:53:50.298Z,93.51
2019-03-11T06:54:50.279Z,91.62
2019-03-11T06:55:50.281Z,90.58
2019-03-11T06:56:50.244Z,90.01
2019-03-11T06:57:50.231Z,88.98
2019-03-11T06:58:50.213Z,88.6
2019-03-11T06:59:49.954Z,87.65
2019-03-11T07:00:50.173Z,87.08
2019-03-11T07:01:49.911Z,86.33
2019-03-11T07:02:50.137Z,85.95
2019-03-11T07:03:50.118Z,85.95
2019-03-11T07:04:50.095Z,86.61
2019-03-11T07:05:50.079Z,86.61
2019-03-11T07:06:50.062Z,88.03
2019-03-11T07:07:50.042Z,88.5
2019-03-11T07:08:50.026Z,88.31
2019-03-11T07:09:50.006Z,89.07
2019-03-11T07:10:49.985Z,89.45
2019-03-11T07:11:50.022Z,93.7
2019-03-11T07:12:49.949Z,96.92
2019-03-11T07:13:49.933Z,98.43
2019-03-11T07:14:49.674Z,98.96
2019-03-11T07:15:49.899Z,97.67
2019-03-11T07:16:49.878Z,97.25
2019-03-11T07:17:49.858Z,98.77
2019-03-11T07:18:49.840Z,97.34
2019-03-11T07:19:49.827Z,96.88
2019-03-11T07:20:49.911Z,97.25
2019-03-11T07:21:49.789Z,99.24
2019-03-11T07:22:49.774Z,99.43
2019-03-11T07:23:49.754Z,98.48
2019-03-11T07:24:49.503Z,97.63
2019-03-11T07:25:49.719Z,97.82
2019-03-11T07:26:49.708Z,98.86
2019-03-11T07:27:49.678Z,97.25
2019-03-11T07:28:49.661Z,96.12
2019-03-11T07:29:49.646Z,96.02
2019-03-11T07:30:49.624Z,97.25
2019-03-11T07:31:49.606Z,99.99
2019-03-11T07:32:49.593Z,99.99
2019-03-11T07:33:49.617Z,99.99
2019-03-11T07:34:49.553Z,99.99
2019-03-11T07:35:49.534Z,99.99
2019-03-11T07:36:49.519Z,99.99
2019-03-11T07:37:49.514Z,99.99
2019-03-11T07:38:49.479Z,99.99
2019-03-11T07:39:49.464Z,99.99
2019-03-11T07:40:49.467Z,99.99
2019-03-11T07:41:49.429Z,99.99
2019-03-11T07:42:49.414Z,99.99
2019-03-11T07:43:49.394Z,99.99
2019-03-11T07:44:49.390Z,99.99
2019-03-11T07:45:49.358Z,99.99
2019-03-11T07:46:49.339Z,99.99
2019-03-11T07:47:49.328Z,99.99
2019-03-11T07:48:49.306Z,99.99
2019-03-11T07:49:49.290Z,99.99
2019-03-11T07:50:49.271Z,99.99
2019-03-11T07:51:49.255Z,99.99
2019-03-11T07:52:49.237Z,99.99
2019-03-11T07:53:49.218Z,99.99
2019-03-11T07:54:49.204Z,99.99
2019-03-11T07:55:49.184Z,99.99
2019-03-11T07:56:49.170Z,99.99
2019-03-11T07:57:49.151Z,99.99
2019-03-11T07:58:49.131Z,99.99
2019-03-11T07:59:49.121Z,99.99
2019-03-11T08:00:56.371Z,99.99
2019-03-11T08:01:49.081Z,99.99
2019-03-11T08:02:49.063Z,99.99
2019-03-11T08:03:49.047Z,99.99
2019-03-11T08:04:48.784Z,99.99
2019-03-11T08:05:49.010Z,99.99
2019-03-11T08:06:48.997Z,99.99
2019-03-11T08:07:49.092Z,99.99
2019-03-11T08:08:48.974Z,99.99
2019-03-11T08:09:49.017Z,99.99
2019-03-11T08:10:48.680Z,99.99
2019-03-11T08:11:48.911Z,99.99
2019-03-11T08:12:48.898Z,99.99
2019-03-11T08:13:48.880Z,99.99
2019-03-11T08:14:48.860Z,99.99
2019-03-11T08:15:48.845Z,99.99
2019-03-11T08:16:48.825Z,99.99
2019-03-11T08:17:48.874Z,99.99
2019-03-11T08:18:48.802Z,99.99
2019-03-11T08:19:48.776Z,99.99
2019-03-11T08:20:48.758Z,99.99
2019-03-11T08:21:48.893Z,99.99
2019-03-11T08:22:48.795Z,99.99
2019-03-11T08:23:48.709Z,99.99
2019-03-11T08:24:48.692Z,99.99
2019-03-11T08:25:48.676Z,99.99
2019-03-11T08:26:48.414Z,99.99
2019-03-11T08:27:48.643Z,99.99
2019-03-11T08:28:48.626Z,99.99
2019-03-11T08:29:48.610Z,99.99
2019-03-11T08:30:48.598Z,99.99
2019-03-11T08:31:48.574Z,99.99
2019-03-11T08:32:48.576Z,99.99
2019-03-11T08:33:48.543Z,99.99
2019-03-11T08:34:48.523Z,99.99
2019-03-11T08:35:48.509Z,99.99
2019-03-11T08:36:48.491Z,99.99
2019-03-11T08:37:48.480Z,99.99
2019-03-11T08:38:48.459Z,99.99
2019-03-11T08:39:48.445Z,99.99
2019-03-11T08:40:48.429Z,99.99
2019-03-11T08:41:48.411Z,99.99
2019-03-11T08:42:48.396Z,99.99
2019-03-11T08:43:48.378Z,99.99
2019-03-11T08:44:48.438Z,99.99
2019-03-11T08:45:48.351Z,99.99
2019-03-11T08:46:48.331Z,99.99
2019-03-11T08:47:48.345Z,99.99
2019-03-11T08:48:48.062Z,99.99
2019-03-11T08:49:48.282Z,99.99
2019-03-11T08:50:48.263Z,99.99
2019-03-11T08:51:48.253Z,99.99
2019-03-11T08:52:48.235Z,99.99
2019-03-11T08:53:48.217Z,99.99
2019-03-11T08:54:47.954Z,99.99
2019-03-11T08:55:48.187Z,99.99
2019-03-11T08:56:48.169Z,99.99
2019-03-11T08:57:48.156Z,99.99
2019-03-11T08:58:47.958Z,99.99
2019-03-11T08:59:48.127Z,99.99
2019-03-11T09:00:48.107Z,99.99
2019-03-11T09:01:48.091Z,99.99
2019-03-11T09:02:48.075Z,99.99
2019-03-11T09:03:50.395Z,99.99
2019-03-11T09:04:48.041Z,99.99
2019-03-11T09:05:47.781Z,99.99
2019-03-11T09:06:47.771Z,99.99
2019-03-11T09:07:47.992Z,99.99
2019-03-11T09:08:47.978Z,99.99
2019-03-11T09:09:47.975Z,99.99
2019-03-11T09:10:47.946Z,99.99
2019-03-11T09:11:47.937Z,99.99
2019-03-11T09:12:47.918Z,99.99
2019-03-11T09:13:47.897Z,99.99
2019-03-11T09:14:47.883Z,99.99
2019-03-11T09:15:47.872Z,99.99
2019-03-11T09:16:47.852Z,99.99
2019-03-11T09:17:47.830Z,99.99
2019-03-11T09:18:47.815Z,99.99
2019-03-11T09:19:47.799Z,99.99
2019-03-11T09:20:47.784Z,99.99
2019-03-11T09:21:47.767Z,99.99
2019-03-11T09:22:47.750Z,99.99
2019-03-11T09:23:47.739Z,99.99
2019-03-11T09:24:47.717Z,99.99
2019-03-11T09:25:47.705Z,99.99
2019-03-11T09:26:47.684Z,99.99
2019-03-11T09:27:50.446Z,99.99
2019-03-11T09:28:47.655Z,99.99
2019-03-11T09:29:47.638Z,99.99
2019-03-11T09:30:47.622Z,99.99
2019-03-11T09:31:47.609Z,99.99
2019-03-11T09:32:47.591Z,99.99
2019-03-11T09:33:47.570Z,99.99
2019-03-11T09:34:47.556Z,99.99
2019-03-11T09:35:47.546Z,99.99
2019-03-11T09:36:47.524Z,99.99
2019-03-11T09:37:47.260Z,99.99
2019-03-11T09:38:47.489Z,99.99
2019-03-11T09:39:47.481Z,99.99
2019-03-11T09:40:47.457Z,99.99
2019-03-11T09:41:47.442Z,99.99
2019-03-11T09:42:47.424Z,99.99
2019-03-11T09:43:47.407Z,99.99
2019-03-11T09:44:47.394Z,99.99
2019-03-11T09:45:47.373Z,99.99
2019-03-11T09:46:47.363Z,99.99
2019-03-11T09:47:47.342Z,99.99
2019-03-11T09:48:47.445Z,99.99
2019-03-11T09:49:47.306Z,99.99
2019-03-11T09:50:47.289Z,99.99
2019-03-11T09:51:47.276Z,99.99
2019-03-11T09:52:47.255Z,99.99
2019-03-11T09:53:47.244Z,99.99
2019-03-11T09:54:47.225Z,99.99
2019-03-11T09:55:47.208Z,99.99
2019-03-11T09:56:46.947Z,99.99
2019-03-11T09:57:47.176Z,99.99
2019-03-11T09:58:47.160Z,99.99
2019-03-11T09:59:47.143Z,99.99
2019-03-11T10:00:47.130Z,99.99
2019-03-11T10:01:46.867Z,99.99
2019-03-11T10:02:54.910Z,99.99
2019-03-11T10:03:47.142Z,99.99
2019-03-11T10:04:47.065Z,99.99
2019-03-11T10:05:47.045Z,99.99
2019-03-11T10:06:47.032Z,95.69
2019-03-11T10:07:47.051Z,95.69
2019-03-11T10:08:47.001Z,93.13
2019-03-11T10:09:46.986Z,96.36
2019-03-11T10:10:46.967Z,97.68
2019-03-11T10:11:46.952Z,99.99
2019-03-11T10:12:46.971Z,99.99
2019-03-11T10:13:46.919Z,99.99
2019-03-11T10:14:46.658Z,99.99
2019-03-11T10:15:46.944Z,99.99
2019-03-11T10:16:46.872Z,99.99
2019-03-11T10:17:46.621Z,99.99
2019-03-11T10:18:46.842Z,99.99
2019-03-11T10:19:46.581Z,99.99
2019-03-11T10:20:46.806Z,99.99
2019-03-11T10:21:46.545Z,97.44
2019-03-11T10:22:46.774Z,99.99
2019-03-11T10:23:46.758Z,99.99
2019-03-11T10:24:46.742Z,99.99
2019-03-11T10:25:46.727Z,99.99
2019-03-11T10:26:46.708Z,99.99
2019-03-11T10:27:46.693Z,99.99
2019-03-11T10:28:46.892Z,99.99
2019-03-11T10:29:46.659Z,99.99
2019-03-11T10:30:46.645Z,99.24
2019-03-11T10:31:46.649Z,99.99
2019-03-11T10:32:46.621Z,99.99
2019-03-11T10:33:46.598Z,99.99
2019-03-11T10:34:46.578Z,98.58
2019-03-11T10:35:46.563Z,99.99
2019-03-11T10:36:46.551Z,99.99
2019-03-11T10:37:46.546Z,99.99
2019-03-11T10:38:46.525Z,99.99
2019-03-11T10:39:47.896Z,99.99
2019-03-11T10:40:46.482Z,99.99
2019-03-11T10:41:46.464Z,99.99
2019-03-11T10:42:46.198Z,99.99
2019-03-11T10:43:46.432Z,99.99
2019-03-11T10:44:46.412Z,99.81
2019-03-11T10:45:46.399Z,99.99
2019-03-11T10:46:47.510Z,99.99
2019-03-11T10:47:46.423Z,99.99
2019-03-11T10:48:46.357Z,99.99
2019-03-11T10:49:46.332Z,99.99
2019-03-11T10:50:46.396Z,99.99
2019-03-11T10:51:46.319Z,99.99
2019-03-11T10:52:46.042Z,99.99
2019-03-11T10:53:46.269Z,99.99
2019-03-11T10:54:46.254Z,99.99
2019-03-11T10:55:45.985Z,99.99
2019-03-11T10:56:46.219Z,99.99
2019-03-11T10:57:46.204Z,99.99
2019-03-11T10:58:46.185Z,99.99
2019-03-11T10:59:46.168Z,99.99
2019-03-11T11:00:46.192Z,99.99
2019-03-11T11:01:46.137Z,99.99
2019-03-11T11:02:46.117Z,99.99
2019-03-11T11:03:46.098Z,99.99
2019-03-11T11:04:47.892Z,99.99
2019-03-11T11:05:46.069Z,99.99
2019-03-11T11:06:46.051Z,99.99
2019-03-11T11:07:46.095Z,99.99
2019-03-11T11:08:46.014Z,99.99
2019-03-11T11:09:45.998Z,99.99
2019-03-11T11:10:45.984Z,99.99
2019-03-11T11:11:45.965Z,99.99
2019-03-11T11:12:45.946Z,99.99
2019-03-11T11:13:46.007Z,99.99
2019-03-11T11:14:45.912Z,99.99
2019-03-11T11:15:45.897Z,99.99
2019-03-11T11:16:46.557Z,99.99
2019-03-11T11:17:45.873Z,99.99
2019-03-11T11:18:45.841Z,99.99
2019-03-11T11:19:45.608Z,99.99
2019-03-11T11:20:45.813Z,99.99
2019-03-11T11:21:45.789Z,99.99
2019-03-11T11:22:45.772Z,99.99
2019-03-11T11:23:45.755Z,99.99
2019-03-11T11:24:45.736Z,99.99
2019-03-11T11:25:45.719Z,99.99
2019-03-11T11:26:45.704Z,99.99
2019-03-11T11:27:45.685Z,99.99
2019-03-11T11:28:45.664Z,99.99
2019-03-11T11:29:45.651Z,99.99
2019-03-11T11:30:45.382Z,99.99
2019-03-11T11:31:45.612Z,99.99
2019-03-11T11:32:45.595Z,99.99
2019-03-11T11:33:45.578Z,99.99
2019-03-11T11:34:45.564Z,99.99
2019-03-11T11:35:45.552Z,99.99
2019-03-11T11:36:45.525Z,99.99
2019-03-11T11:37:45.512Z,99.99
2019-03-11T11:38:45.491Z,99.99
2019-03-11T11:39:45.474Z,99.99
2019-03-11T11:40:45.468Z,99.99
2019-03-11T11:41:45.449Z,99.99
2019-03-11T11:42:45.175Z,99.99
2019-03-11T11:43:45.405Z,99.99
2019-03-11T11:44:45.388Z,99.99
2019-03-11T11:45:45.379Z,99.99
2019-03-11T11:46:45.359Z,99.99
2019-03-11T11:47:45.094Z,99.99
2019-03-11T11:48:45.326Z,99.99
2019-03-11T11:49:45.304Z,99.99
2019-03-11T11:50:45.041Z,99.99
2019-03-11T11:51:45.274Z,99.99
2019-03-11T11:52:45.265Z,99.99
2019-03-11T11:53:45.237Z,99.99
2019-03-11T11:54:44.980Z,99.99
2019-03-11T11:55:45.205Z,99.99
2019-03-11T11:56:45.182Z,99.99
2019-03-11T11:57:45.168Z,99.99
2019-03-11T11:58:45.160Z,99.99
2019-03-11T11:59:55.932Z,99.99
2019-03-11T12:00:45.121Z,99.99
2019-03-11T12:01:45.099Z,99.99
2019-03-11T12:02:45.083Z,99.99
2019-03-11T12:03:45.065Z,99.99
2019-03-11T12:04:45.051Z,99.99
2019-03-11T12:05:45.031Z,99.99
2019-03-11T12:06:45.016Z,99.99
2019-03-11T12:07:45.001Z,99.99
2019-03-11T12:08:44.983Z,99.99
2019-03-11T12:09:44.725Z,99.99
2019-03-11T12:10:44.945Z,99.99
2019-03-11T12:11:44.928Z,99.99
2019-03-11T12:12:44.914Z,99.99
2019-03-11T12:13:44.895Z,99.99
2019-03-11T12:14:44.881Z,99.99
2019-03-11T12:15:44.858Z,99.99
2019-03-11T12:16:44.847Z,99.99
2019-03-11T12:17:44.823Z,99.99
2019-03-11T12:18:44.807Z,99.99
2019-03-11T12:19:44.792Z,99.99
2019-03-11T12:20:44.775Z,99.99
2019-03-11T12:21:44.758Z,99.99
2019-03-11T12:22:45.378Z,99.99
2019-03-11T12:23:48.681Z,99.99
2019-03-11T12:24:44.709Z,99.99
2019-03-11T12:25:44.692Z,99.99
2019-03-11T12:26:46.186Z,99.99
2019-03-11T12:27:57.871Z,99.24
2019-03-11T12:28:44.637Z,99.9
2019-03-11T12:29:44.622Z,98.86
2019-03-11T12:30:44.605Z,94.98
2019-03-11T12:31:44.587Z,91.29
2019-03-11T12:32:44.324Z,90.81
2019-03-11T12:33:44.556Z,96.59
2019-03-11T12:34:44.540Z,99.99
2019-03-11T12:35:44.522Z,99.01
2019-03-11T12:36:44.505Z,90.29
2019-03-11T12:37:44.493Z,93.61
2019-03-11T12:38:44.474Z,93.42
2019-03-11T12:39:44.456Z,95.5
2019-03-11T12:40:44.448Z,99.1
2019-03-11T12:41:44.423Z,99.99
2019-03-11T12:42:44.406Z,99.99
2019-03-11T12:43:44.391Z,99.99
2019-03-11T12:44:44.378Z,99.99
2019-03-11T12:45:44.361Z,99.99
2019-03-11T12:46:44.351Z,99.99
2019-03-11T12:47:44.336Z,99.99
2019-03-11T12:48:44.322Z,99.67
2019-03-11T12:49:44.048Z,94.65
2019-03-11T12:50:44.277Z,98.91
2019-03-11T12:51:52.434Z,98.72
2019-03-11T12:52:44.246Z,97.11
2019-03-11T12:53:44.236Z,96.78